Time;durP1;ratioP1;P1;durP2;ratioP2;P2;SDS_P1;SDS_P2;PMS_P1;PMS_P2;Temp;Humidity;BMP_temperature;BMP_pressure;BME280_temperature;BME280_humidity;BME280_pressure;Samples;Min_cycle;Max_cycle;Signal;HPM_P1;HPM_P2
2022/11/03 00:02:04;;;;;;;;;;;;;;;-148.88;74.12;76183.50;5116435;28;19907;-75
2022/11/03 00:04:29;;;;;;;;;;;;;;;-148.88;74.14;76181.47;5116697;28;19947;-76
2022/11/03 00:06:54;;;;;;;;;;;;;;;-148.88;74.19;76175.38;5116021;28;20304;-75
2022/11/03 00:09:20;;;;;;;;;;;;;;;-148.88;73.94;76175.38;5116073;28;20331;-75
2022/11/03 00:11:46;;;;;;;;;;;;;;;-148.88;74.16;76171.31;5115910;28;19915;-75
2022/11/03 00:14:13;;;;;;;;;;;;;;;-148.88;74.00;76167.25;5115903;28;19908;-75
2022/11/03 00:16:39;;;;;;;;;;;;;;;-148.88;74.34;76167.25;5116232;28;19908;-75
2022/11/03 00:19:05;;;;;;;;;;;;;;;-148.88;73.70;76161.16;5115823;28;19998;-75
2022/11/03 00:21:30;;;;;;;;;;;;;;;-148.88;73.94;76157.09;5115722;28;20427;-75
2022/11/03 00:23:55;;;;;;;;;;;;;;;-148.88;74.11;76153.03;5116043;28;19911;-75
2022/11/03 00:26:28;;;;;;;;;;;;;;;-148.88;73.81;76144.91;5097461;28;19915;-75
2022/11/03 00:28:59;;;;;;;;;;;;;;;-148.88;74.04;76138.81;5115995;28;19994;-75
2022/11/03 00:31:29;;;;;;;;;;;;;;;-148.88;74.16;76142.88;5115476;28;19912;-75
2022/11/03 00:33:54;;;;;;;;;;;;;;;-148.88;73.64;76134.72;5115873;28;20440;-75
2022/11/03 00:36:21;;;;;;;;;;;;;;;-148.88;74.27;76126.59;5115834;28;19907;-75
2022/11/03 00:38:46;;;;;;;;;;;;;;;-148.88;73.96;76118.47;5115444;28;20023;-75
2022/11/03 00:41:12;;;;;;;;;;;;;;;-148.88;73.57;76112.41;5115298;28;20405;-75
2022/11/03 00:43:37;;;;;;;;;;;;;;;-148.88;73.24;76102.22;5115317;28;20425;-75
2022/11/03 00:46:04;;;;;;;;;;;;;;;-148.88;72.73;76090.03;5115243;28;19911;-75
2022/11/03 00:48:29;;;;;;;;;;;;;;;-148.88;72.60;76081.91;5115592;28;19908;-75
2022/11/03 00:51:06;;;;;;;;;;;;;;;-148.88;72.45;76071.75;5115172;28;20002;-75
2022/11/03 00:53:32;;;;;;;;;;;;;;;-148.88;72.29;76073.78;5096868;28;19934;-75
2022/11/03 00:55:58;;;;;;;;;;;;;;;-148.88;72.32;76071.75;5115431;28;19960;-75
2022/11/03 00:58:24;;;;;;;;;;;;;;;-148.88;72.31;76065.66;5096823;28;19990;-75
2022/11/03 01:00:49;;;;;;;;;;;;;;;-148.88;72.22;76065.66;5096744;28;19915;-75
2022/11/03 01:03:14;;;;;;;;;;;;;;;-148.88;72.47;76067.69;5115314;28;19907;-75
2022/11/03 01:08:24;;;;;;;;;;;;;;;-148.88;73.11;76088.00;5115712;28;19915;-75
2022/11/03 01:13:40;;;;;;;;;;;;;;;-148.88;74.21;76106.28;5090698;28;20002;-75
2022/11/03 01:16:06;;;;;;;;;;;;;;;-148.88;74.27;76114.41;5114793;28;19951;-75
2022/11/03 01:18:31;;;;;;;;;;;;;;;-148.88;74.39;76106.28;5096438;28;19956;-75
2022/11/03 01:20:56;;;;;;;;;;;;;;;-148.88;73.75;76092.06;5096845;28;19998;-75
2022/11/03 01:23:24;;;;;;;;;;;;;;;-148.88;73.97;76094.09;5114625;28;19907;-75
2022/11/03 01:25:49;;;;;;;;;;;;;;;-148.88;73.77;76085.97;5114013;28;19912;-75
2022/11/03 01:28:15;;;;;;;;;;;;;;;-148.88;73.75;76081.91;5114474;28;19914;-75
2022/11/03 01:30:40;;;;;;;;;;;;;;;-148.88;73.74;76085.97;5114296;28;19907;-75
2022/11/03 01:33:05;;;;;;;;;;;;;;;-148.88;73.99;76077.84;5114485;28;20071;-75
2022/11/03 01:35:30;;;;;;;;;;;;;;;-148.88;74.07;76081.91;5114505;28;19939;-75
2022/11/03 01:37:55;;;;;;;;;;;;;;;-148.88;74.14;76073.78;5114376;28;19912;-75
2022/11/03 01:40:21;;;;;;;;;;;;;;;-148.88;74.01;76077.84;5114157;28;19946;-75
2022/11/03 01:42:46;;;;;;;;;;;;;;;-148.88;74.60;76071.75;5114232;28;19934;-75
2022/11/03 01:45:11;;;;;;;;;;;;;;;-148.88;74.37;76061.59;5114086;28;19912;-75
2022/11/03 01:47:37;;;;;;;;;;;;;;;-148.88;74.46;76057.53;5114218;28;19908;-75
2022/11/03 01:50:14;;;;;;;;;;;;;;;-148.88;74.58;76049.41;5114074;28;19915;-75
2022/11/03 01:52:41;;;;;;;;;;;;;;;-148.88;74.48;76037.22;5113991;28;20014;-75
2022/11/03 01:55:09;;;;;;;;;;;;;;;-148.88;74.97;76041.28;5114313;28;19912;-75
2022/11/03 01:57:39;;;;;;;;;;;;;;;-148.88;75.30;76043.31;5114009;28;19908;-75
2022/11/03 02:00:05;;;;;;;;;;;;;;;-148.88;74.91;76037.22;5114222;28;19908;-75
2022/11/03 02:02:30;;;;;;;;;;;;;;;-148.88;75.41;76033.16;5114095;28;19914;-75
2022/11/03 02:04:57;;;;;;;;;;;;;;;-148.88;75.65;76016.91;5114130;28;20320;-75
2022/11/03 02:07:32;;;;;;;;;;;;;;;-148.88;75.55;76020.97;5113811;28;19907;-75
2022/11/03 02:09:57;;;;;;;;;;;;;;;-148.88;75.81;76008.78;5114105;28;19908;-75
2022/11/03 02:12:23;;;;;;;;;;;;;;;-148.88;75.85;76004.72;5113698;28;19915;-75
2022/11/03 02:14:50;;;;;;;;;;;;;;;-148.88;75.88;76002.69;5113733;28;19908;-75
2022/11/03 02:17:16;;;;;;;;;;;;;;;-148.88;75.95;76006.75;5113735;28;19908;-75
2022/11/03 02:19:47;;;;;;;;;;;;;;;-148.88;76.39;76006.75;5114013;28;19915;-75
2022/11/03 02:22:31;;;;;;;;;;;;;;;-148.88;76.80;76014.88;5113796;28;19907;-75
2022/11/03 02:25:01;;;;;;;;;;;;;;;-148.88;76.85;76020.97;5113536;28;20342;-75
2022/11/03 02:27:26;;;;;;;;;;;;;;;-148.88;77.06;76020.97;5113666;28;19911;-75
2022/11/03 02:29:53;;;;;;;;;;;;;;;-148.88;76.87;76025.03;5113870;28;19907;-75
2022/11/03 02:32:25;;;;;;;;;;;;;;;-148.88;77.38;76029.09;5095117;28;19985;-75
2022/11/03 02:35:02;;;;;;;;;;;;;;;-148.88;77.68;76039.25;5113566;28;19908;-75
2022/11/03 02:37:29;;;;;;;;;;;;;;;-148.88;77.86;76039.25;5115788;28;19912;-75
2022/11/03 02:40:07;;;;;;;;;;;;;;;-148.88;77.90;76045.34;5117771;28;19964;-75
2022/11/03 02:42:34;;;;;;;;;;;;;;;-148.88;78.30;76047.38;5117654;28;19961;-75
2022/11/03 02:45:01;;;;;;;;;;;;;;;-148.88;78.64;76049.41;5117634;28;19961;-75
2022/11/03 02:47:29;;;;;;;;;;;;;;;-148.88;78.94;76053.47;5117987;28;19914;-75
2022/11/03 02:49:54;;;;;;;;;;;;;;;-148.88;79.41;76047.38;5099242;28;20288;-75
2022/11/03 02:52:34;;;;;;;;;;;;;;;-148.88;79.19;76055.50;5117557;28;20372;-75
2022/11/03 02:55:04;;;;;;;;;;;;;;;-148.88;79.51;76053.47;5117490;28;20475;-75
2022/11/03 02:57:32;;;;;;;;;;;;;;;-148.88;80.06;76055.50;5117432;28;19957;-75
2022/11/03 03:00:00;;;;;;;;;;;;;;;-148.88;80.05;76053.47;5117925;28;19915;-75
2022/11/03 03:02:34;;;;;;;;;;;;;;;-148.88;80.37;76053.47;5117305;28;19908;-75
2022/11/03 03:05:02;;;;;;;;;;;;;;;-148.88;80.26;76053.47;5117236;28;19908;-75
2022/11/03 03:07:32;;;;;;;;;;;;;;;-148.88;80.77;76045.34;5117259;28;19911;-75
2022/11/03 03:10:03;;;;;;;;;;;;;;;-148.88;80.88;76039.25;5117254;28;20048;-75
2022/11/03 03:12:31;;;;;;;;;;;;;;;-148.88;81.12;76041.28;5117219;28;19930;-75
2022/11/03 03:14:58;;;;;;;;;;;;;;;-148.88;81.43;76045.34;5117182;28;19908;-75
2022/11/03 03:17:30;;;;;;;;;;;;;;;-148.88;82.12;76053.47;5117381;28;19953;-75
2022/11/03 03:20:12;;;;;;;;;;;;;;;-148.88;82.81;76079.88;5117085;28;19996;-75
2022/11/03 03:22:40;;;;;;;;;;;;;;;-148.88;83.28;76094.09;5098723;28;19998;-75
2022/11/03 03:25:26;;;;;;;;;;;;;;;-148.88;84.23;76114.41;5117019;28;19912;-75
2022/11/03 03:27:58;;;;;;;;;;;;;;;-148.88;84.91;76122.56;5116484;28;19908;-75
2022/11/03 03:30:23;;;;;;;;;;;;;;;-148.88;85.39;76128.66;5098701;28;20326;-75
2022/11/03 03:32:49;;;;;;;;;;;;;;;-148.88;85.67;76134.72;5116854;28;19911;-75
2022/11/03 03:35:20;;;;;;;;;;;;;;;-148.88;85.86;76130.69;5116932;28;19998;-75
2022/11/03 03:37:47;;;;;;;;;;;;;;;-148.88;86.08;76128.66;5117200;28;20000;-75
2022/11/03 03:40:15;;;;;;;;;;;;;;;-148.88;86.58;76122.56;5116878;28;20356;-75
2022/11/03 03:42:42;;;;;;;;;;;;;;;-148.88;86.19;76116.44;5116724;28;19907;-75
2022/11/03 03:45:09;;;;;;;;;;;;;;;-148.88;86.30;76110.34;5116883;28;19918;-75
2022/11/03 03:47:34;;;;;;;;;;;;;;;-148.88;86.74;76102.22;5116449;28;19914;-75
2022/11/03 03:50:00;;;;;;;;;;;;;;;-148.88;86.64;76094.09;5116911;28;20002;-75
2022/11/03 03:52:25;;;;;;;;;;;;;;;-148.88;86.94;76094.09;5116531;28;20399;-75
2022/11/03 03:54:50;;;;;;;;;;;;;;;-148.88;86.76;76083.94;5116743;28;19908;-75
2022/11/03 03:57:17;;;;;;;;;;;;;;;-148.88;86.91;76081.91;5116436;28;20038;-75
2022/11/03 03:59:43;;;;;;;;;;;;;;;-148.88;87.07;76085.97;5116695;28;19908;-75
2022/11/03 04:02:08;;;;;;;;;;;;;;;-148.88;86.77;76090.03;5110766;22;20015;-75
2022/11/03 04:04:34;;;;;;;;;;;;;;;-148.88;87.55;76090.03;5075976;28;19912;-76
2022/11/03 04:09:42;;;;;;;;;;;;;;;-148.88;87.55;76085.97;5075892;28;20042;-76
2022/11/03 04:23:06;;;;;;;;;;;;;;;-148.88;88.68;76085.97;5075004;28;19912;-76
2022/11/03 04:25:31;;;;;;;;;;;;;;;-148.88;88.67;76077.84;5056840;28;19916;-76
2022/11/03 04:27:56;;;;;;;;;;;;;;;-148.88;88.82;76073.78;5074577;28;19909;-76
2022/11/03 04:30:23;;;;;;;;;;;;;;;-148.88;89.07;76077.84;5074460;28;19935;-76
2022/11/03 04:32:50;;;;;;;;;;;;;;;-148.88;89.03;76069.72;5074568;28;19908;-76
2022/11/03 04:35:22;;;;;;;;;;;;;;;-148.88;89.03;76075.81;5056502;28;19908;-76
2022/11/03 04:37:50;;;;;;;;;;;;;;;-148.88;89.42;76073.78;5074530;28;19915;-76
2022/11/03 04:40:15;;;;;;;;;;;;;;;-148.88;89.24;76071.75;5074439;28;19908;-76
2022/11/03 04:42:41;;;;;;;;;;;;;;;-148.88;89.18;76057.53;5074407;28;19909;-76
2022/11/03 04:45:15;;;;;;;;;;;;;;;-148.88;88.84;76055.50;5074903;28;19919;-75
2022/11/03 04:47:40;;;;;;;;;;;;;;;-148.88;89.15;76047.38;5074947;28;19908;-75
2022/11/03 04:50:10;;;;;;;;;;;;;;;-148.88;88.88;76049.41;5074589;28;19920;-75
2022/11/03 04:52:36;;;;;;;;;;;;;;;-148.88;89.17;76049.41;5074984;28;19917;-75
2022/11/03 04:55:01;;;;;;;;;;;;;;;-148.88;89.28;76047.38;5074486;28;19909;-74
2022/11/03 04:57:26;;;;;;;;;;;;;;;-148.88;89.24;76037.22;5074454;28;20227;-75
2022/11/03 04:59:52;;;;;;;;;;;;;;;-148.88;89.43;76033.16;5073778;28;20106;-75
2022/11/03 05:02:18;;;;;;;;;;;;;;;-148.88;89.22;76033.16;5074048;28;20400;-75
2022/11/03 05:04:43;;;;;;;;;;;;;;;-148.88;89.44;76027.06;5073981;28;20396;-75
2022/11/03 05:07:21;;;;;;;;;;;;;;;-148.88;89.54;76025.03;5055846;28;19913;-75
2022/11/03 05:09:46;;;;;;;;;;;;;;;-148.88;89.13;76025.03;5074239;28;19912;-75
2022/11/03 05:12:12;;;;;;;;;;;;;;;-148.88;89.35;76020.97;5073809;28;19941;-75
2022/11/03 05:14:37;;;;;;;;;;;;;;;-148.88;88.86;76010.81;5073967;28;19909;-75
2022/11/03 05:17:06;;;;;;;;;;;;;;;-148.88;89.31;76014.88;5073704;28;19919;-75
2022/11/03 05:19:32;;;;;;;;;;;;;;;-148.88;89.54;76004.72;5073749;28;19978;-75
2022/11/03 05:21:59;;;;;;;;;;;;;;;-148.88;89.64;76004.72;5074004;28;19915;-75
2022/11/03 05:24:25;;;;;;;;;;;;;;;-148.88;90.03;76012.84;5055756;28;20007;-75
2022/11/03 05:26:51;;;;;;;;;;;;;;;-148.88;89.97;76010.81;5073701;28;19916;-75
2022/11/03 05:29:33;;;;;;;;;;;;;;;-148.88;90.01;76002.69;5055670;28;19958;-76
2022/11/03 05:31:59;;;;;;;;;;;;;;;-148.88;90.32;76016.91;5073590;28;19908;-75
2022/11/03 05:34:24;;;;;;;;;;;;;;;-148.88;90.80;76012.84;5073512;28;19915;-75
2022/11/03 05:36:49;;;;;;;;;;;;;;;-148.88;90.92;76004.72;5073484;28;20259;-76
2022/11/03 05:39:23;;;;;;;;;;;;;;;-148.88;90.64;76004.72;5055463;28;20107;-75
2022/11/03 05:41:49;;;;;;;;;;;;;;;-148.88;91.47;76010.81;5073415;28;19916;-75
2022/11/03 05:44:35;;;;;;;;;;;;;;;-148.88;91.11;76008.78;5073561;28;19908;-75
2022/11/03 05:47:01;;;;;;;;;;;;;;;-148.88;91.40;76004.72;5073235;28;20298;-76
2022/11/03 05:49:27;;;;;;;;;;;;;;;-148.88;91.20;76012.84;5073173;28;20007;-75
2022/11/03 05:51:52;;;;;;;;;;;;;;;-148.88;91.55;76006.75;5072927;28;19959;-74
2022/11/03 05:54:19;;;;;;;;;;;;;;;-148.88;91.53;76004.72;5055174;28;19948;-75
2022/11/03 05:56:45;;;;;;;;;;;;;;;-148.88;91.60;76008.78;5055256;28;19908;-75
2022/11/03 05:59:12;;;;;;;;;;;;;;;-148.88;91.78;76004.72;5073256;28;19908;-75
2022/11/03 06:01:38;;;;;;;;;;;;;;;-148.88;91.56;76000.66;5073199;28;19909;-75
2022/11/03 06:04:14;;;;;;;;;;;;;;;-148.88;91.21;76012.84;5073424;28;19908;-75
2022/11/03 06:06:39;;;;;;;;;;;;;;;-148.88;91.77;76002.69;5054727;28;20383;-75
2022/11/03 06:09:11;;;;;;;;;;;;;;;-148.88;91.73;76008.78;5072707;28;19944;-75
2022/11/03 06:11:36;;;;;;;;;;;;;;;-148.88;91.66;76002.69;5054780;28;19908;-75
2022/11/03 06:14:07;;;;;;;;;;;;;;;-148.88;91.83;76004.72;5054781;28;20407;-75
2022/11/03 06:16:35;;;;;;;;;;;;;;;-148.88;91.93;76006.75;5073436;28;20274;-74
2022/11/03 06:19:10;;;;;;;;;;;;;;;-148.88;92.02;76004.72;5072853;28;20368;-75
2022/11/03 06:21:35;;;;;;;;;;;;;;;-148.88;91.73;76004.72;5072833;28;19908;-75
2022/11/03 06:24:01;;;;;;;;;;;;;;;-148.88;91.89;76004.72;5072826;28;19920;-75
2022/11/03 06:26:26;;;;;;;;;;;;;;;-148.88;92.07;76002.69;5072754;28;20274;-75
2022/11/03 06:28:51;;;;;;;;;;;;;;;-148.88;92.09;76000.66;5054761;28;19908;-75
2022/11/03 06:31:19;;;;;;;;;;;;;;;-148.88;92.61;76000.66;5072652;28;19915;-75
2022/11/03 06:33:44;;;;;;;;;;;;;;;-148.88;92.36;75996.59;5072763;28;19995;-75
2022/11/03 06:36:15;;;;;;;;;;;;;;;-148.88;92.47;75984.41;5072735;28;19939;-75
2022/11/03 06:38:40;;;;;;;;;;;;;;;-148.88;92.34;75980.34;5072773;28;20382;-75
2022/11/03 06:41:13;;;;;;;;;;;;;;;-148.88;92.48;75974.25;5072637;28;19934;-75
2022/11/03 06:43:40;;;;;;;;;;;;;;;-148.88;92.27;75972.22;5073108;28;19914;-75
2022/11/03 06:46:19;;;;;;;;;;;;;;;-148.88;92.80;75972.22;5073098;28;19913;-75
2022/11/03 06:48:44;;;;;;;;;;;;;;;-148.88;92.60;75972.22;5072914;28;19954;-76
2022/11/03 06:51:28;;;;;;;;;;;;;;;-148.88;92.31;75968.16;5072570;28;19908;-76
2022/11/03 06:53:56;;;;;;;;;;;;;;;-148.88;92.23;75955.97;5073342;28;19912;-76
2022/11/03 06:56:23;;;;;;;;;;;;;;;-148.88;92.12;75960.03;5072640;28;19916;-76
2022/11/03 06:58:51;;;;;;;;;;;;;;;-148.88;92.20;75962.06;5054729;28;19960;-76
2022/11/03 07:01:19;;;;;;;;;;;;;;;-148.88;92.39;75960.03;5072416;28;20356;-76
2022/11/03 07:03:44;;;;;;;;;;;;;;;-148.88;92.13;75947.84;5072460;28;20332;-76
2022/11/03 07:06:09;;;;;;;;;;;;;;;-148.88;91.83;75937.69;5072496;28;20011;-75
2022/11/03 07:08:40;;;;;;;;;;;;;;;-148.88;91.68;75943.78;5072433;28;20492;-75
2022/11/03 07:11:11;;;;;;;;;;;;;;;-148.88;92.00;75933.63;5072216;28;19908;-75
2022/11/03 07:13:36;;;;;;;;;;;;;;;-148.88;91.72;75919.41;5054257;28;19908;-75
2022/11/03 07:16:01;;;;;;;;;;;;;;;-148.88;91.83;75915.34;5072348;28;19915;-75
2022/11/03 07:18:30;;;;;;;;;;;;;;;-148.88;91.67;75913.31;5072154;28;19908;-75
2022/11/03 07:20:56;;;;;;;;;;;;;;;-148.88;91.96;75911.28;5072047;28;20153;-75
2022/11/03 07:23:27;;;;;;;;;;;;;;;-148.88;91.75;75905.19;5055900;28;19958;-75
2022/11/03 07:25:55;;;;;;;;;;;;;;;-148.88;91.92;75901.13;5075944;28;19919;-75
2022/11/03 07:28:21;;;;;;;;;;;;;;;-148.88;91.67;75901.13;5075871;28;20271;-76
2022/11/03 07:30:47;;;;;;;;;;;;;;;-148.88;91.67;75899.09;5076038;28;19908;-76
2022/11/03 07:33:17;;;;;;;;;;;;;;;-148.88;91.24;75899.09;5076098;28;19915;-76
2022/11/03 07:35:44;;;;;;;;;;;;;;;-148.88;91.19;75886.91;5075823;28;20320;-76
2022/11/03 07:38:13;;;;;;;;;;;;;;;-148.88;91.07;75874.72;5075504;28;19909;-76
2022/11/03 07:40:39;;;;;;;;;;;;;;;-148.88;90.70;75878.78;5075651;28;20007;-75
2022/11/03 07:43:13;;;;;;;;;;;;;;;-148.88;90.12;75866.59;5075349;28;19948;-75
2022/11/03 07:45:41;;;;;;;;;;;;;;;-148.88;90.44;75848.31;5075444;28;19913;-75
2022/11/03 07:48:25;;;;;;;;;;;;;;;-148.88;90.01;75846.28;5075272;28;19909;-75
2022/11/03 07:50:51;;;;;;;;;;;;;;;-148.88;89.82;75842.22;5075448;28;19954;-75
2022/11/03 07:53:23;;;;;;;;;;;;;;;-148.88;89.02;75838.16;5075557;28;19951;-75
2022/11/03 07:55:48;;;;;;;;;;;;;;;-148.88;88.92;75819.88;5057562;28;20333;-75
2022/11/03 07:58:19;;;;;;;;;;;;;;;-148.88;88.23;75809.72;5057333;28;20359;-76
2022/11/03 08:00:44;;;;;;;;;;;;;;;-148.88;88.25;75805.66;5075565;28;19947;-76
2022/11/03 08:03:15;;;;;;;;;;;;;;;-148.88;88.05;75801.59;5075067;28;19927;-76
2022/11/03 08:05:40;;;;;;;;;;;;;;;-148.88;88.09;75793.47;5075165;28;19912;-75
2022/11/03 08:08:06;;;;;;;;;;;;;;;-148.88;87.58;75779.25;5075021;28;20348;-75
2022/11/03 08:10:31;;;;;;;;;;;;;;;-148.88;87.45;75767.06;5074916;28;19909;-75
2022/11/03 08:12:57;;;;;;;;;;;;;;;-148.88;87.33;75767.06;5056929;28;20275;-76
2022/11/03 08:15:22;;;;;;;;;;;;;;;-148.88;87.56;75748.78;5075287;28;19908;-76
2022/11/03 08:17:48;;;;;;;;;;;;;;;-148.88;86.91;75740.66;5074991;28;19915;-76
2022/11/03 08:20:13;;;;;;;;;;;;;;;-148.88;86.82;75728.47;5074926;28;19912;-75
2022/11/03 08:22:38;;;;;;;;;;;;;;;-148.88;86.39;75724.41;5074866;28;19908;-75
2022/11/03 08:25:03;;;;;;;;;;;;;;;-148.88;86.13;75708.16;5074858;28;20412;-76
2022/11/03 08:27:28;;;;;;;;;;;;;;;-148.88;85.71;75700.03;5057087;28;19915;-76
2022/11/03 08:29:54;;;;;;;;;;;;;;;-148.88;85.27;75687.84;5074959;28;19908;-75
2022/11/03 08:32:19;;;;;;;;;;;;;;;-148.88;85.33;75677.69;5074544;28;20277;-75
2022/11/03 08:34:44;;;;;;;;;;;;;;;-148.88;85.08;75663.47;5073417;28;19924;-75
2022/11/03 08:37:09;;;;;;;;;;;;;;;-148.88;84.74;75651.28;5074866;28;19916;-75
2022/11/03 08:39:35;;;;;;;;;;;;;;;-148.88;84.61;75647.22;5056560;28;20374;-76
2022/11/03 08:42:00;;;;;;;;;;;;;;;-148.88;84.73;75639.09;5074368;28;20003;-75
2022/11/03 08:44:25;;;;;;;;;;;;;;;-148.88;84.12;75624.88;5074471;28;19915;-75
2022/11/03 08:46:50;;;;;;;;;;;;;;;-148.88;83.80;75612.69;5074592;28;19912;-75
2022/11/03 08:49:15;;;;;;;;;;;;;;;-148.88;83.32;75608.63;5074473;28;19987;-75
2022/11/03 08:51:41;;;;;;;;;;;;;;;-148.88;83.95;75608.63;5056435;28;19931;-75
2022/11/03 08:54:06;;;;;;;;;;;;;;;-148.88;83.65;75606.59;5074876;28;20323;-75
2022/11/03 08:56:31;;;;;;;;;;;;;;;-148.88;83.85;75610.66;5056401;28;19956;-75
2022/11/03 08:58:56;;;;;;;;;;;;;;;-148.88;83.80;75602.53;5074319;28;19986;-75
2022/11/03 09:01:21;;;;;;;;;;;;;;;-148.88;83.43;75608.63;5074372;28;20375;-75
2022/11/03 09:03:47;;;;;;;;;;;;;;;-148.88;83.51;75590.34;5074097;28;19912;-75
2022/11/03 09:06:12;;;;;;;;;;;;;;;-148.88;82.74;75586.31;5074444;28;19987;-76
2022/11/03 09:08:37;;;;;;;;;;;;;;;-148.88;82.88;75590.34;5074287;28;19908;-75
2022/11/03 09:11:02;;;;;;;;;;;;;;;-148.88;83.32;75584.25;5074185;28;19912;-76
2022/11/03 09:13:27;;;;;;;;;;;;;;;-148.88;83.43;75582.22;5056118;28;19908;-76
2022/11/03 09:15:53;;;;;;;;;;;;;;;-148.88;83.19;75572.09;5073993;28;19913;-75
2022/11/03 09:18:18;;;;;;;;;;;;;;;-148.88;82.68;75566.00;5073892;28;20383;-75
2022/11/03 09:20:44;;;;;;;;;;;;;;;-148.88;83.49;75553.81;5073912;28;19912;-75
2022/11/03 09:23:09;;;;;;;;;;;;;;;-148.88;82.93;75557.88;5055876;28;20319;-75
2022/11/03 09:25:34;;;;;;;;;;;;;;;-148.88;83.07;75553.81;5073540;28;19912;-76
2022/11/03 09:27:59;;;;;;;;;;;;;;;-148.88;83.13;75543.66;5073443;28;19908;-75
2022/11/03 09:30:24;;;;;;;;;;;;;;;-148.88;83.05;75527.41;5055303;28;19908;-76
2022/11/03 09:32:49;;;;;;;;;;;;;;;-148.88;82.69;75525.38;5073322;28;20290;-76
2022/11/03 09:35:15;;;;;;;;;;;;;;;-148.88;82.52;75503.03;5073307;28;20235;-76
2022/11/03 09:37:41;;;;;;;;;;;;;;;-148.88;81.67;75488.81;5073158;28;20371;-75
2022/11/03 09:40:08;;;;;;;;;;;;;;;-148.88;82.00;75480.69;5073165;28;19960;-75
2022/11/03 09:42:34;;;;;;;;;;;;;;;-148.88;81.48;75464.44;5055427;28;20350;-75
2022/11/03 09:45:00;;;;;;;;;;;;;;;-148.88;81.76;75452.25;5055170;28;19948;-75
2022/11/03 09:47:31;;;;;;;;;;;;;;;-148.88;80.79;75440.06;5072943;28;19955;-75
2022/11/03 09:49:57;;;;;;;;;;;;;;;-148.88;80.79;75440.06;5073090;28;19908;-75
2022/11/03 09:52:23;;;;;;;;;;;;;;;-148.88;81.36;75431.94;5073237;28;20505;-75
2022/11/03 09:54:48;;;;;;;;;;;;;;;-148.88;81.47;75421.78;5073175;28;19914;-75
2022/11/03 09:57:14;;;;;;;;;;;;;;;-148.88;80.63;75411.63;5073087;28;19935;-75
2022/11/03 09:59:41;;;;;;;;;;;;;;;-148.88;77.90;75391.31;5073004;28;20311;-75
2022/11/03 10:02:15;;;;;;;;;;;;;;;-148.88;77.12;75379.13;5054843;28;20381;-75
2022/11/03 10:04:40;;;;;;;;;;;;;;;-148.88;74.68;75362.88;5073019;28;19962;-75
2022/11/03 10:07:06;;;;;;;;;;;;;;;-148.88;75.24;75356.78;5073413;28;19912;-76
2022/11/03 10:09:32;;;;;;;;;;;;;;;-148.88;74.97;75344.59;5073096;28;19908;-75
2022/11/03 10:11:58;;;;;;;;;;;;;;;-148.88;75.04;75342.56;5073164;28;19946;-75
2022/11/03 10:14:23;;;;;;;;;;;;;;;-148.88;73.99;75332.41;5073196;28;19935;-75
2022/11/03 10:16:55;;;;;;;;;;;;;;;-148.88;74.41;75330.38;5073443;28;19999;-76
2022/11/03 10:19:20;;;;;;;;;;;;;;;-148.88;74.99;75314.13;5073133;28;19909;-75
2022/11/03 10:21:45;;;;;;;;;;;;;;;-148.88;75.71;75310.06;5073192;28;20050;-75
2022/11/03 10:24:11;;;;;;;;;;;;;;;-148.88;74.78;75306.00;5073422;28;20317;-75
2022/11/03 10:26:55;;;;;;;;;;;;;;;-148.88;74.83;75312.09;5055071;28;19920;-75
2022/11/03 10:29:21;;;;;;;;;;;;;;;-148.88;74.55;75297.88;5073180;28;19908;-75
2022/11/03 10:31:50;;;;;;;;;;;;;;;-148.88;74.39;75295.84;5054908;28;19908;-75
2022/11/03 10:34:23;;;;;;;;;;;;;;;-148.88;75.04;75293.81;5073086;28;19908;-75
2022/11/03 10:36:49;;;;;;;;;;;;;;;-148.88;74.64;75283.66;5073061;28;19908;-75
2022/11/03 10:39:28;;;;;;;;;;;;;;;-148.88;74.78;75275.56;5055070;28;19918;-76
2022/11/03 10:41:57;;;;;;;;;;;;;;;-148.88;75.18;75267.44;5073207;28;19915;-75
2022/11/03 10:44:24;;;;;;;;;;;;;;;-148.88;74.65;75257.28;5072978;28;19915;-75
2022/11/03 10:46:57;;;;;;;;;;;;;;;-148.88;74.29;75257.28;5072856;28;19916;-75
2022/11/03 10:49:23;;;;;;;;;;;;;;;-148.88;74.46;75253.22;5055004;28;20367;-76
2022/11/03 10:51:50;;;;;;;;;;;;;;;-148.88;74.66;75251.19;5072968;28;19909;-75
2022/11/03 10:54:17;;;;;;;;;;;;;;;-148.88;74.91;75251.19;5054877;28;19915;-75
2022/11/03 10:56:43;;;;;;;;;;;;;;;-148.88;74.93;75249.16;5054856;28;19912;-76
2022/11/03 10:59:23;;;;;;;;;;;;;;;-148.88;74.94;75249.16;5076096;28;19908;-75
2022/11/03 11:01:48;;;;;;;;;;;;;;;-148.88;75.47;75247.13;5076658;28;20290;-76
2022/11/03 11:04:15;;;;;;;;;;;;;;;-148.88;75.58;75247.13;5076809;28;19919;-76
2022/11/03 11:06:41;;;;;;;;;;;;;;;-148.88;74.69;75253.22;5076685;28;19961;-75
2022/11/03 11:09:08;;;;;;;;;;;;;;;-148.88;74.51;75245.09;5076938;28;19912;-75
2022/11/03 11:11:34;;;;;;;;;;;;;;;-148.88;74.78;75249.16;5076577;28;20070;-75
2022/11/03 11:14:18;;;;;;;;;;;;;;;-148.88;75.95;75241.03;5076592;28;19979;-75
2022/11/03 11:16:48;;;;;;;;;;;;;;;-148.88;76.77;75236.97;5076577;28;19908;-75
2022/11/03 11:19:14;;;;;;;;;;;;;;;-148.88;75.90;75234.94;5076756;28;19988;-75
2022/11/03 11:21:39;;;;;;;;;;;;;;;-148.88;76.32;75228.84;5076402;28;20046;-75
2022/11/03 11:24:08;;;;;;;;;;;;;;;-148.88;76.06;75220.72;5058555;28;20325;-75
2022/11/03 11:26:33;;;;;;;;;;;;;;;-148.88;76.39;75218.69;5076350;28;20014;-75
2022/11/03 11:29:08;;;;;;;;;;;;;;;-148.88;77.14;75208.53;5076545;28;19977;-75
2022/11/03 11:31:39;;;;;;;;;;;;;;;-148.88;76.21;75200.41;5076188;28;19944;-75
2022/11/03 11:34:07;;;;;;;;;;;;;;;-148.88;76.59;75192.28;5076233;28;19919;-75
2022/11/03 11:36:33;;;;;;;;;;;;;;;-148.88;76.99;75184.16;5076114;28;20240;-75
2022/11/03 11:38:58;;;;;;;;;;;;;;;-148.88;76.69;75180.09;5076358;28;19927;-75
2022/11/03 11:41:42;;;;;;;;;;;;;;;-148.88;76.96;75176.03;5075983;28;19908;-75
2022/11/03 11:44:26;;;;;;;;;;;;;;;-148.88;77.41;75176.03;5076269;28;19915;-75
2022/11/03 11:46:51;;;;;;;;;;;;;;;-148.88;76.96;75171.97;5075949;28;20011;-75
2022/11/03 11:49:16;;;;;;;;;;;;;;;-148.88;77.70;75171.97;5076075;28;19947;-75
2022/11/03 11:51:41;;;;;;;;;;;;;;;-148.88;77.88;75163.84;5076081;28;19930;-75
2022/11/03 11:54:07;;;;;;;;;;;;;;;-148.88;77.31;75157.75;5057857;28;19912;-75
2022/11/03 11:56:33;;;;;;;;;;;;;;;-148.88;77.55;75155.72;5075844;28;19912;-75
2022/11/03 11:58:58;;;;;;;;;;;;;;;-148.88;77.33;75155.72;5057724;28;19909;-75
2022/11/03 12:01:34;;;;;;;;;;;;;;;-148.88;77.82;75143.53;5075684;28;19908;-75
2022/11/03 12:04:12;;;;;;;;;;;;;;;-148.88;77.33;75137.44;5076022;28;20267;-75
2022/11/03 12:06:39;;;;;;;;;;;;;;;-148.88;78.67;75131.34;5075634;28;19919;-75
2022/11/03 12:09:16;;;;;;;;;;;;;;;-148.88;78.47;75121.19;5075396;28;19912;-75
2022/11/03 12:11:43;;;;;;;;;;;;;;;-148.88;78.63;75115.09;5075474;28;19934;-75
2022/11/03 12:14:25;;;;;;;;;;;;;;;-148.88;78.19;75106.97;5057517;28;20341;-75
2022/11/03 12:16:51;;;;;;;;;;;;;;;-148.88;77.94;75098.84;5075759;28;19908;-75
2022/11/03 12:19:31;;;;;;;;;;;;;;;-148.88;78.02;75090.72;5075474;28;19916;-75
2022/11/03 12:21:56;;;;;;;;;;;;;;;-148.88;78.02;75086.69;5075309;28;19940;-75
2022/11/03 12:24:31;;;;;;;;;;;;;;;-148.88;77.73;75086.69;5076096;28;19908;-75
2022/11/03 12:26:57;;;;;;;;;;;;;;;-148.88;78.15;75098.84;5075184;28;19916;-75
2022/11/03 12:29:22;;;;;;;;;;;;;;;-148.88;77.56;75090.72;5075172;28;19908;-75
2022/11/03 12:31:47;;;;;;;;;;;;;;;-148.88;77.61;75088.72;5057038;28;19915;-75
2022/11/03 12:34:13;;;;;;;;;;;;;;;-148.88;77.74;75090.72;5075135;28;19915;-75
2022/11/03 12:36:38;;;;;;;;;;;;;;;-148.88;77.75;75080.59;5075100;28;19908;-75
2022/11/03 12:39:03;;;;;;;;;;;;;;;-148.88;77.79;75080.59;5075054;28;19919;-75
2022/11/03 12:41:28;;;;;;;;;;;;;;;-148.88;77.49;75066.38;5074908;28;19908;-75
2022/11/03 12:43:54;;;;;;;;;;;;;;;-148.88;76.46;75044.03;5075305;28;20362;-75
2022/11/03 12:46:20;;;;;;;;;;;;;;;-148.88;76.69;75052.16;5075046;28;19912;-75
2022/11/03 12:48:46;;;;;;;;;;;;;;;-148.88;76.61;75050.13;5075027;28;20388;-75
2022/11/03 12:51:20;;;;;;;;;;;;;;;-148.88;76.73;75058.25;5056883;28;20322;-75